sensor_id;sensor_type;location;lat;lon;timestamp;P1;durP1;ratioP1;P2;durP2;ratioP2
20004;SDS011;69160;45.498;-73.582;2023-05-15T00:01:22;13.37;;;3.70;;
20004;SDS011;69160;45.498;-73.582;2023-05-15T00:03:48;16.47;;;3.67;;
20004;SDS011;69160;45.498;-73.582;2023-05-15T00:06:16;16.43;;;4.07;;
20004;SDS011;69160;45.498;-73.582;2023-05-15T00:08:43;17.43;;;4.30;;
20004;SDS011;69160;45.498;-73.582;2023-05-15T00:11:09;23.27;;;4.23;;
20004;SDS011;69160;45.498;-73.582;2023-05-15T00:13:35;17.17;;;4.80;;
20004;SDS011;69160;45.498;-73.582;2023-05-15T00:16:03;21.13;;;4.50;;
20004;SDS011;69160;45.498;-73.582;2023-05-15T00:18:33;21.47;;;5.20;;
20004;SDS011;69160;45.498;-73.582;2023-05-15T00:20:59;15.90;;;5.30;;
20004;SDS011;69160;45.498;-73.582;2023-05-15T00:23:25;22.53;;;5.23;;
20004;SDS011;69160;45.498;-73.582;2023-05-15T00:25:52;14.73;;;4.87;;
20004;SDS011;69160;45.498;-73.582;2023-05-15T00:28:18;21.93;;;5.40;;
20004;SDS011;69160;45.498;-73.582;2023-05-15T00:30:44;21.80;;;6.03;;
20004;SDS011;69160;45.498;-73.582;2023-05-15T00:33:10;19.43;;;4.97;;
20004;SDS011;69160;45.498;-73.582;2023-05-15T00:35:36;17.00;;;4.97;;
20004;SDS011;69160;45.498;-73.582;2023-05-15T00:38:02;17.60;;;4.80;;
20004;SDS011;69160;45.498;-73.582;2023-05-15T00:40:29;24.30;;;5.53;;
20004;SDS011;69160;45.498;-73.582;2023-05-15T00:42:56;20.87;;;5.57;;
20004;SDS011;69160;45.498;-73.582;2023-05-15T00:45:23;24.20;;;5.50;;
20004;SDS011;69160;45.498;-73.582;2023-05-15T00:47:51;14.50;;;5.10;;
20004;SDS011;69160;45.498;-73.582;2023-05-15T00:50:19;18.17;;;5.63;;
20004;SDS011;69160;45.498;-73.582;2023-05-15T00:52:46;18.63;;;4.80;;
20004;SDS011;69160;45.498;-73.582;2023-05-15T00:55:13;13.20;;;4.80;;
20004;SDS011;69160;45.498;-73.582;2023-05-15T00:57:39;20.40;;;5.07;;
20004;SDS011;69160;45.498;-73.582;2023-05-15T01:00:08;17.20;;;4.33;;
20004;SDS011;69160;45.498;-73.582;2023-05-15T01:02:35;13.77;;;4.47;;
20004;SDS011;69160;45.498;-73.582;2023-05-15T01:05:02;11.10;;;5.23;;
20004;SDS011;69160;45.498;-73.582;2023-05-15T01:07:29;30.13;;;5.37;;
20004;SDS011;69160;45.498;-73.582;2023-05-15T01:10:02;14.50;;;4.50;;
20004;SDS011;69160;45.498;-73.582;2023-05-15T01:12:29;16.57;;;5.00;;
20004;SDS011;69160;45.498;-73.582;2023-05-15T01:14:56;10.40;;;3.77;;
20004;SDS011;69160;45.498;-73.582;2023-05-15T01:17:23;10.30;;;4.20;;
20004;SDS011;69160;45.498;-73.582;2023-05-15T01:19:49;7.30;;;3.67;;
20004;SDS011;69160;45.498;-73.582;2023-05-15T01:30:20;11.90;;;4.10;;
20004;SDS011;69160;45.498;-73.582;2023-05-15T01:33:10;9.43;;;3.63;;
20004;SDS011;69160;45.498;-73.582;2023-05-15T01:38:43;13.73;;;4.30;;
20004;SDS011;69160;45.498;-73.582;2023-05-15T01:43:41;16.10;;;4.00;;
20004;SDS011;69160;45.498;-73.582;2023-05-15T01:46:11;8.53;;;3.70;;
20004;SDS011;69160;45.498;-73.582;2023-05-15T01:48:42;8.07;;;3.77;;
20004;SDS011;69160;45.498;-73.582;2023-05-15T01:51:10;9.70;;;3.97;;
20004;SDS011;69160;45.498;-73.582;2023-05-15T01:53:39;10.00;;;3.53;;
20004;SDS011;69160;45.498;-73.582;2023-05-15T01:56:07;7.83;;;3.77;;
20004;SDS011;69160;45.498;-73.582;2023-05-15T01:58:38;14.37;;;4.23;;
20004;SDS011;69160;45.498;-73.582;2023-05-15T02:01:05;8.57;;;3.70;;
20004;SDS011;69160;45.498;-73.582;2023-05-15T02:03:33;8.77;;;3.43;;
20004;SDS011;69160;45.498;-73.582;2023-05-15T02:06:00;8.73;;;3.30;;
20004;SDS011;69160;45.498;-73.582;2023-05-15T02:08:28;6.10;;;3.47;;
20004;SDS011;69160;45.498;-73.582;2023-05-15T02:10:57;9.33;;;3.40;;
20004;SDS011;69160;45.498;-73.582;2023-05-15T02:13:27;7.03;;;3.33;;
20004;SDS011;69160;45.498;-73.582;2023-05-15T02:15:56;6.50;;;3.27;;
20004;SDS011;69160;45.498;-73.582;2023-05-15T02:18:22;7.40;;;2.80;;
20004;SDS011;69160;45.498;-73.582;2023-05-15T02:20:48;8.30;;;3.20;;
20004;SDS011;69160;45.498;-73.582;2023-05-15T02:23:15;8.93;;;3.20;;
20004;SDS011;69160;45.498;-73.582;2023-05-15T02:25:50;9.20;;;3.70;;
20004;SDS011;69160;45.498;-73.582;2023-05-15T02:28:46;9.93;;;2.80;;
20004;SDS011;69160;45.498;-73.582;2023-05-15T02:32:07;7.37;;;3.30;;
20004;SDS011;69160;45.498;-73.582;2023-05-15T02:34:38;5.83;;;3.03;;
20004;SDS011;69160;45.498;-73.582;2023-05-15T02:37:15;10.70;;;2.90;;
20004;SDS011;69160;45.498;-73.582;2023-05-15T02:39:44;6.90;;;3.00;;
20004;SDS011;69160;45.498;-73.582;2023-05-15T02:42:13;5.70;;;2.83;;
20004;SDS011;69160;45.498;-73.582;2023-05-15T02:44:41;6.33;;;2.83;;
20004;SDS011;69160;45.498;-73.582;2023-05-15T02:47:08;8.03;;;3.30;;
20004;SDS011;69160;45.498;-73.582;2023-05-15T02:49:35;6.37;;;2.60;;
20004;SDS011;69160;45.498;-73.582;2023-05-15T02:52:02;5.47;;;2.63;;
20004;SDS011;69160;45.498;-73.582;2023-05-15T02:54:28;4.47;;;2.63;;
20004;SDS011;69160;45.498;-73.582;2023-05-15T02:56:54;5.20;;;2.67;;
20004;SDS011;69160;45.498;-73.582;2023-05-15T02:59:20;9.20;;;2.27;;
20004;SDS011;69160;45.498;-73.582;2023-05-15T03:01:47;4.10;;;2.40;;
20004;SDS011;69160;45.498;-73.582;2023-05-15T03:04:13;5.63;;;2.77;;
20004;SDS011;69160;45.498;-73.582;2023-05-15T03:06:40;6.43;;;2.73;;
20004;SDS011;69160;45.498;-73.582;2023-05-15T03:09:06;6.83;;;2.20;;
20004;SDS011;69160;45.498;-73.582;2023-05-15T03:11:32;7.57;;;2.60;;
20004;SDS011;69160;45.498;-73.582;2023-05-15T03:13:58;6.50;;;2.67;;
20004;SDS011;69160;45.498;-73.582;2023-05-15T03:16:25;4.27;;;2.23;;
20004;SDS011;69160;45.498;-73.582;2023-05-15T03:18:52;7.53;;;2.43;;
20004;SDS011;69160;45.498;-73.582;2023-05-15T03:21:18;4.70;;;2.50;;
20004;SDS011;69160;45.498;-73.582;2023-05-15T03:23:44;4.70;;;2.70;;
20004;SDS011;69160;45.498;-73.582;2023-05-15T03:26:10;5.63;;;2.40;;
20004;SDS011;69160;45.498;-73.582;2023-05-15T03:28:37;6.80;;;2.33;;
20004;SDS011;69160;45.498;-73.582;2023-05-15T03:31:03;8.37;;;2.70;;
20004;SDS011;69160;45.498;-73.582;2023-05-15T03:33:29;5.63;;;2.53;;
20004;SDS011;69160;45.498;-73.582;2023-05-15T03:35:56;4.17;;;2.03;;
20004;SDS011;69160;45.498;-73.582;2023-05-15T03:38:22;6.23;;;2.33;;
20004;SDS011;69160;45.498;-73.582;2023-05-15T03:40:48;4.20;;;2.03;;
20004;SDS011;69160;45.498;-73.582;2023-05-15T03:43:14;11.10;;;2.77;;
20004;SDS011;69160;45.498;-73.582;2023-05-15T03:45:40;4.90;;;2.20;;
20004;SDS011;69160;45.498;-73.582;2023-05-15T03:48:06;2.83;;;1.90;;
20004;SDS011;69160;45.498;-73.582;2023-05-15T03:50:32;4.37;;;1.90;;
20004;SDS011;69160;45.498;-73.582;2023-05-15T03:52:58;3.87;;;2.30;;
20004;SDS011;69160;45.498;-73.582;2023-05-15T03:55:25;3.40;;;2.00;;
20004;SDS011;69160;45.498;-73.582;2023-05-15T03:57:51;5.13;;;2.20;;
20004;SDS011;69160;45.498;-73.582;2023-05-15T04:00:17;5.70;;;2.17;;
20004;SDS011;69160;45.498;-73.582;2023-05-15T04:02:43;4.57;;;2.60;;
20004;SDS011;69160;45.498;-73.582;2023-05-15T04:05:09;3.63;;;1.80;;
20004;SDS011;69160;45.498;-73.582;2023-05-15T04:07:36;8.93;;;2.20;;
20004;SDS011;69160;45.498;-73.582;2023-05-15T04:10:03;2.73;;;1.70;;
20004;SDS011;69160;45.498;-73.582;2023-05-15T04:12:33;3.37;;;1.93;;
20004;SDS011;69160;45.498;-73.582;2023-05-15T04:17:46;3.53;;;1.63;;
20004;SDS011;69160;45.498;-73.582;2023-05-15T04:20:13;4.47;;;2.10;;
20004;SDS011;69160;45.498;-73.582;2023-05-15T04:22:41;4.57;;;1.93;;
20004;SDS011;69160;45.498;-73.582;2023-05-15T04:25:07;4.50;;;1.80;;
20004;SDS011;69160;45.498;-73.582;2023-05-15T04:27:35;3.40;;;1.77;;
20004;SDS011;69160;45.498;-73.582;2023-05-15T04:30:02;3.73;;;1.97;;
20004;SDS011;69160;45.498;-73.582;2023-05-15T04:32:29;3.87;;;2.03;;
20004;SDS011;69160;45.498;-73.582;2023-05-15T04:34:58;3.00;;;1.60;;
20004;SDS011;69160;45.498;-73.582;2023-05-15T04:37:25;2.80;;;1.70;;
20004;SDS011;69160;45.498;-73.582;2023-05-15T04:39:52;4.87;;;1.97;;
20004;SDS011;69160;45.498;-73.582;2023-05-15T04:42:18;2.43;;;1.60;;
20004;SDS011;69160;45.498;-73.582;2023-05-15T04:44:44;3.03;;;1.80;;
20004;SDS011;69160;45.498;-73.582;2023-05-15T04:47:11;3.07;;;1.80;;
20004;SDS011;69160;45.498;-73.582;2023-05-15T04:49:38;4.93;;;1.97;;
20004;SDS011;69160;45.498;-73.582;2023-05-15T04:52:05;2.00;;;1.50;;
20004;SDS011;69160;45.498;-73.582;2023-05-15T04:54:32;2.50;;;1.80;;
20004;SDS011;69160;45.498;-73.582;2023-05-15T04:56:58;3.17;;;1.80;;
20004;SDS011;69160;45.498;-73.582;2023-05-15T04:59:24;4.70;;;1.80;;
20004;SDS011;69160;45.498;-73.582;2023-05-15T05:01:52;2.10;;;1.43;;
20004;SDS011;69160;45.498;-73.582;2023-05-15T05:04:19;2.97;;;2.10;;
20004;SDS011;69160;45.498;-73.582;2023-05-15T05:06:45;2.30;;;1.47;;
20004;SDS011;69160;45.498;-73.582;2023-05-15T05:09:12;2.90;;;1.67;;
20004;SDS011;69160;45.498;-73.582;2023-05-15T05:11:38;3.17;;;1.50;;
20004;SDS011;69160;45.498;-73.582;2023-05-15T05:14:11;3.10;;;1.70;;
20004;SDS011;69160;45.498;-73.582;2023-05-15T05:16:38;3.43;;;1.63;;
20004;SDS011;69160;45.498;-73.582;2023-05-15T05:19:05;4.23;;;1.57;;
20004;SDS011;69160;45.498;-73.582;2023-05-15T05:21:32;2.70;;;1.53;;
20004;SDS011;69160;45.498;-73.582;2023-05-15T05:23:58;2.83;;;1.80;;
20004;SDS011;69160;45.498;-73.582;2023-05-15T05:26:25;4.07;;;1.70;;
20004;SDS011;69160;45.498;-73.582;2023-05-15T05:28:51;6.60;;;1.30;;
20004;SDS011;69160;45.498;-73.582;2023-05-15T05:31:17;3.20;;;1.40;;
20004;SDS011;69160;45.498;-73.582;2023-05-15T05:33:44;1.27;;;1.13;;
20004;SDS011;69160;45.498;-73.582;2023-05-15T05:36:10;1.73;;;1.20;;
20004;SDS011;69160;45.498;-73.582;2023-05-15T05:38:36;1.77;;;1.20;;
20004;SDS011;69160;45.498;-73.582;2023-05-15T05:41:03;2.37;;;1.60;;
20004;SDS011;69160;45.498;-73.582;2023-05-15T05:43:29;5.20;;;1.40;;
20004;SDS011;69160;45.498;-73.582;2023-05-15T05:45:55;2.03;;;1.60;;
20004;SDS011;69160;45.498;-73.582;2023-05-15T05:48:22;2.43;;;1.47;;
20004;SDS011;69160;45.498;-73.582;2023-05-15T05:50:48;1.83;;;1.20;;
20004;SDS011;69160;45.498;-73.582;2023-05-15T05:53:15;1.97;;;1.53;;
20004;SDS011;69160;45.498;-73.582;2023-05-15T05:55:41;1.80;;;1.33;;
20004;SDS011;69160;45.498;-73.582;2023-05-15T05:58:07;3.10;;;1.67;;
20004;SDS011;69160;45.498;-73.582;2023-05-15T06:00:34;1.93;;;1.37;;
20004;SDS011;69160;45.498;-73.582;2023-05-15T06:03:00;1.80;;;1.40;;
20004;SDS011;69160;45.498;-73.582;2023-05-15T06:05:27;1.70;;;1.27;;
20004;SDS011;69160;45.498;-73.582;2023-05-15T06:07:53;1.60;;;1.30;;
20004;SDS011;69160;45.498;-73.582;2023-05-15T06:10:20;3.53;;;1.63;;
20004;SDS011;69160;45.498;-73.582;2023-05-15T06:12:47;1.77;;;1.33;;
20004;SDS011;69160;45.498;-73.582;2023-05-15T06:15:14;1.83;;;1.40;;
20004;SDS011;69160;45.498;-73.582;2023-05-15T06:17:41;1.57;;;1.23;;
20004;SDS011;69160;45.498;-73.582;2023-05-15T06:20:07;1.30;;;1.20;;
20004;SDS011;69160;45.498;-73.582;2023-05-15T06:22:37;2.50;;;1.30;;
20004;SDS011;69160;45.498;-73.582;2023-05-15T06:25:03;2.43;;;1.33;;
20004;SDS011;69160;45.498;-73.582;2023-05-15T06:27:31;2.00;;;1.20;;
20004;SDS011;69160;45.498;-73.582;2023-05-15T06:29:57;1.60;;;1.37;;
20004;SDS011;69160;45.498;-73.582;2023-05-15T06:32:23;1.60;;;1.20;;
20004;SDS011;69160;45.498;-73.582;2023-05-15T06:34:50;2.17;;;1.30;;
20004;SDS011;69160;45.498;-73.582;2023-05-15T06:37:16;2.60;;;1.23;;
20004;SDS011;69160;45.498;-73.582;2023-05-15T06:39:42;2.47;;;1.33;;
20004;SDS011;69160;45.498;-73.582;2023-05-15T06:42:09;3.83;;;1.30;;
20004;SDS011;69160;45.498;-73.582;2023-05-15T06:44:35;1.77;;;1.27;;
20004;SDS011;69160;45.498;-73.582;2023-05-15T06:47:01;2.60;;;1.20;;
20004;SDS011;69160;45.498;-73.582;2023-05-15T06:49:27;1.87;;;1.27;;
20004;SDS011;69160;45.498;-73.582;2023-05-15T06:51:53;1.87;;;1.33;;
20004;SDS011;69160;45.498;-73.582;2023-05-15T06:54:20;2.10;;;1.43;;
20004;SDS011;69160;45.498;-73.582;2023-05-15T06:56:46;1.57;;;1.13;;
20004;SDS011;69160;45.498;-73.582;2023-05-15T06:59:12;1.70;;;1.30;;
20004;SDS011;69160;45.498;-73.582;2023-05-15T07:01:38;1.87;;;1.30;;
20004;SDS011;69160;45.498;-73.582;2023-05-15T07:04:04;1.30;;;1.17;;
20004;SDS011;69160;45.498;-73.582;2023-05-15T07:06:30;1.43;;;1.13;;
20004;SDS011;69160;45.498;-73.582;2023-05-15T07:08:57;1.53;;;1.30;;
20004;SDS011;69160;45.498;-73.582;2023-05-15T07:11:24;2.20;;;1.43;;
20004;SDS011;69160;45.498;-73.582;2023-05-15T07:13:51;2.33;;;1.30;;
20004;SDS011;69160;45.498;-73.582;2023-05-15T07:16:17;5.63;;;1.50;;
20004;SDS011;69160;45.498;-73.582;2023-05-15T07:18:43;2.70;;;1.20;;
20004;SDS011;69160;45.498;-73.582;2023-05-15T07:21:10;2.37;;;1.40;;
20004;SDS011;69160;45.498;-73.582;2023-05-15T07:23:36;1.17;;;1.00;;
20004;SDS011;69160;45.498;-73.582;2023-05-15T07:26:02;1.60;;;1.10;;
20004;SDS011;69160;45.498;-73.582;2023-05-15T07:28:28;2.30;;;1.27;;
20004;SDS011;69160;45.498;-73.582;2023-05-15T07:30:54;1.40;;;1.30;;
20004;SDS011;69160;45.498;-73.582;2023-05-15T07:33:20;2.03;;;1.40;;
20004;SDS011;69160;45.498;-73.582;2023-05-15T07:35:46;1.00;;;0.90;;
20004;SDS011;69160;45.498;-73.582;2023-05-15T07:38:14;2.57;;;1.37;;
20004;SDS011;69160;45.498;-73.582;2023-05-15T07:40:41;2.13;;;1.40;;
20004;SDS011;69160;45.498;-73.582;2023-05-15T07:43:07;1.87;;;1.43;;
20004;SDS011;69160;45.498;-73.582;2023-05-15T07:45:33;2.80;;;1.13;;
20004;SDS011;69160;45.498;-73.582;2023-05-15T07:48:11;2.47;;;1.27;;
20004;SDS011;69160;45.498;-73.582;2023-05-15T07:50:42;2.30;;;1.30;;
20004;SDS011;69160;45.498;-73.582;2023-05-15T07:53:10;2.40;;;1.13;;
20004;SDS011;69160;45.498;-73.582;2023-05-15T07:55:36;1.23;;;1.07;;
20004;SDS011;69160;45.498;-73.582;2023-05-15T07:58:02;1.70;;;1.27;;
20004;SDS011;69160;45.498;-73.582;2023-05-15T08:00:28;1.20;;;1.10;;
20004;SDS011;69160;45.498;-73.582;2023-05-15T08:02:55;1.43;;;1.27;;
20004;SDS011;69160;45.498;-73.582;2023-05-15T08:05:21;2.03;;;0.90;;
20004;SDS011;69160;45.498;-73.582;2023-05-15T08:07:47;1.37;;;1.07;;
20004;SDS011;69160;45.498;-73.582;2023-05-15T08:10:13;1.00;;;0.90;;
20004;SDS011;69160;45.498;-73.582;2023-05-15T08:12:39;1.20;;;1.00;;
20004;SDS011;69160;45.498;-73.582;2023-05-15T08:15:10;1.10;;;0.97;;
20004;SDS011;69160;45.498;-73.582;2023-05-15T08:17:36;1.00;;;0.90;;
20004;SDS011;69160;45.498;-73.582;2023-05-15T08:20:02;1.90;;;1.23;;
20004;SDS011;69160;45.498;-73.582;2023-05-15T08:22:29;1.90;;;1.30;;
20004;SDS011;69160;45.498;-73.582;2023-05-15T08:24:56;2.43;;;1.17;;
20004;SDS011;69160;45.498;-73.582;2023-05-15T08:27:24;2.90;;;1.00;;
20004;SDS011;69160;45.498;-73.582;2023-05-15T08:29:50;0.90;;;0.80;;
20004;SDS011;69160;45.498;-73.582;2023-05-15T08:32:18;1.37;;;1.27;;
20004;SDS011;69160;45.498;-73.582;2023-05-15T08:34:44;1.57;;;1.20;;
20004;SDS011;69160;45.498;-73.582;2023-05-15T08:37:10;1.60;;;1.30;;
20004;SDS011;69160;45.498;-73.582;2023-05-15T08:39:36;7.03;;;1.30;;
20004;SDS011;69160;45.498;-73.582;2023-05-15T08:44:55;3.20;;;1.40;;
20004;SDS011;69160;45.498;-73.582;2023-05-15T08:47:21;1.63;;;1.23;;
20004;SDS011;69160;45.498;-73.582;2023-05-15T08:52:20;3.33;;;1.23;;
20004;SDS011;69160;45.498;-73.582;2023-05-15T08:54:47;5.27;;;1.20;;
20004;SDS011;69160;45.498;-73.582;2023-05-15T08:57:14;1.70;;;1.50;;
20004;SDS011;69160;45.498;-73.582;2023-05-15T08:59:42;1.40;;;1.17;;
20004;SDS011;69160;45.498;-73.582;2023-05-15T09:02:08;3.00;;;1.20;;
20004;SDS011;69160;45.498;-73.582;2023-05-15T09:04:35;2.53;;;0.97;;
20004;SDS011;69160;45.498;-73.582;2023-05-15T09:07:01;1.00;;;0.90;;
20004;SDS011;69160;45.498;-73.582;2023-05-15T09:09:29;2.00;;;1.30;;
20004;SDS011;69160;45.498;-73.582;2023-05-15T09:11:57;2.77;;;1.30;;
20004;SDS011;69160;45.498;-73.582;2023-05-15T09:14:25;1.40;;;1.20;;
20004;SDS011;69160;45.498;-73.582;2023-05-15T09:16:51;1.17;;;0.93;;
20004;SDS011;69160;45.498;-73.582;2023-05-15T09:19:18;1.40;;;0.90;;
20004;SDS011;69160;45.498;-73.582;2023-05-15T09:21:46;2.00;;;1.10;;
20004;SDS011;69160;45.498;-73.582;2023-05-15T09:24:16;1.60;;;1.10;;
20004;SDS011;69160;45.498;-73.582;2023-05-15T09:27:02;1.40;;;1.00;;
20004;SDS011;69160;45.498;-73.582;2023-05-15T09:29:30;1.17;;;1.07;;
20004;SDS011;69160;45.498;-73.582;2023-05-15T09:32:05;2.23;;;1.10;;
20004;SDS011;69160;45.498;-73.582;2023-05-15T09:34:33;2.07;;;1.10;;
20004;SDS011;69160;45.498;-73.582;2023-05-15T09:37:05;1.50;;;1.10;;
20004;SDS011;69160;45.498;-73.582;2023-05-15T09:39:33;1.10;;;1.00;;
20004;SDS011;69160;45.498;-73.582;2023-05-15T09:42:07;2.17;;;1.30;;
20004;SDS011;69160;45.498;-73.582;2023-05-15T09:44:41;3.13;;;1.40;;
20004;SDS011;69160;45.498;-73.582;2023-05-15T09:47:08;1.73;;;1.07;;
20004;SDS011;69160;45.498;-73.582;2023-05-15T09:49:35;2.50;;;1.20;;
20004;SDS011;69160;45.498;-73.582;2023-05-15T09:52:02;2.27;;;1.03;;
20004;SDS011;69160;45.498;-73.582;2023-05-15T09:54:31;3.03;;;1.00;;
20004;SDS011;69160;45.498;-73.582;2023-05-15T09:57:06;3.20;;;1.03;;
20004;SDS011;69160;45.498;-73.582;2023-05-15T09:59:43;2.20;;;1.37;;
20004;SDS011;69160;45.498;-73.582;2023-05-15T10:02:21;2.50;;;1.20;;
20004;SDS011;69160;45.498;-73.582;2023-05-15T10:04:55;3.80;;;1.13;;
20004;SDS011;69160;45.498;-73.582;2023-05-15T10:07:31;3.03;;;1.23;;
20004;SDS011;69160;45.498;-73.582;2023-05-15T10:09:59;3.73;;;1.20;;
20004;SDS011;69160;45.498;-73.582;2023-05-15T10:12:27;2.67;;;1.10;;
20004;SDS011;69160;45.498;-73.582;2023-05-15T10:14:56;2.73;;;1.30;;
20004;SDS011;69160;45.498;-73.582;2023-05-15T10:17:24;1.70;;;1.23;;
20004;SDS011;69160;45.498;-73.582;2023-05-15T10:19:52;1.83;;;1.03;;
20004;SDS011;69160;45.498;-73.582;2023-05-15T10:22:22;1.67;;;1.13;;
20004;SDS011;69160;45.498;-73.582;2023-05-15T10:25:12;2.73;;;1.33;;
20004;SDS011;69160;45.498;-73.582;2023-05-15T10:27:42;4.20;;;1.53;;
20004;SDS011;69160;45.498;-73.582;2023-05-15T10:30:11;2.27;;;1.30;;
20004;SDS011;69160;45.498;-73.582;2023-05-15T10:32:40;2.50;;;1.00;;
20004;SDS011;69160;45.498;-73.582;2023-05-15T10:35:11;4.87;;;1.73;;
20004;SDS011;69160;45.498;-73.582;2023-05-15T10:37:40;2.17;;;1.30;;
20004;SDS011;69160;45.498;-73.582;2023-05-15T10:40:08;1.50;;;1.40;;
20004;SDS011;69160;45.498;-73.582;2023-05-15T10:42:37;3.60;;;1.50;;
20004;SDS011;69160;45.498;-73.582;2023-05-15T10:45:05;1.53;;;1.23;;
20004;SDS011;69160;45.498;-73.582;2023-05-15T10:47:33;3.10;;;1.30;;
20004;SDS011;69160;45.498;-73.582;2023-05-15T10:50:00;2.73;;;1.57;;
20004;SDS011;69160;45.498;-73.582;2023-05-15T10:52:28;2.30;;;1.60;;
20004;SDS011;69160;45.498;-73.582;2023-05-15T10:55:06;2.17;;;1.47;;
20004;SDS011;69160;45.498;-73.582;2023-05-15T10:57:38;2.50;;;1.63;;
20004;SDS011;69160;45.498;-73.582;2023-05-15T11:00:26;4.57;;;1.63;;
20004;SDS011;69160;45.498;-73.582;2023-05-15T11:02:52;1.37;;;1.23;;
20004;SDS011;69160;45.498;-73.582;2023-05-15T11:05:20;1.77;;;1.20;;
20004;SDS011;69160;45.498;-73.582;2023-05-15T11:10:43;3.17;;;1.33;;
20004;SDS011;69160;45.498;-73.582;2023-05-15T11:13:09;0.87;;;0.83;;
20004;SDS011;69160;45.498;-73.582;2023-05-15T11:15:42;2.50;;;1.10;;
20004;SDS011;69160;45.498;-73.582;2023-05-15T11:18:10;3.37;;;1.30;;
20004;SDS011;69160;45.498;-73.582;2023-05-15T11:20:37;2.30;;;1.70;;
20004;SDS011;69160;45.498;-73.582;2023-05-15T11:23:20;2.23;;;1.40;;
20004;SDS011;69160;45.498;-73.582;2023-05-15T11:25:54;3.27;;;1.30;;
20004;SDS011;69160;45.498;-73.582;2023-05-15T11:28:26;2.77;;;1.50;;
20004;SDS011;69160;45.498;-73.582;2023-05-15T11:30:57;3.43;;;1.20;;
20004;SDS011;69160;45.498;-73.582;2023-05-15T11:33:25;3.17;;;1.33;;
20004;SDS011;69160;45.498;-73.582;2023-05-15T11:35:56;7.60;;;1.40;;
20004;SDS011;69160;45.498;-73.582;2023-05-15T11:38:24;11.00;;;1.60;;
20004;SDS011;69160;45.498;-73.582;2023-05-15T11:40:51;6.33;;;1.40;;
20004;SDS011;69160;45.498;-73.582;2023-05-15T11:43:29;7.93;;;1.47;;
20004;SDS011;69160;45.498;-73.582;2023-05-15T11:48:31;8.33;;;1.67;;
20004;SDS011;69160;45.498;-73.582;2023-05-15T11:51:02;4.07;;;1.60;;
20004;SDS011;69160;45.498;-73.582;2023-05-15T11:53:30;2.10;;;1.57;;
20004;SDS011;69160;45.498;-73.582;2023-05-15T11:55:57;4.70;;;1.53;;
20004;SDS011;69160;45.498;-73.582;2023-05-15T11:58:24;4.67;;;1.80;;
20004;SDS011;69160;45.498;-73.582;2023-05-15T12:00:51;2.00;;;1.20;;
20004;SDS011;69160;45.498;-73.582;2023-05-15T12:03:21;5.20;;;1.57;;
20004;SDS011;69160;45.498;-73.582;2023-05-15T12:05:52;7.17;;;1.53;;
20004;SDS011;69160;45.498;-73.582;2023-05-15T12:08:19;9.40;;;1.23;;
20004;SDS011;69160;45.498;-73.582;2023-05-15T12:10:46;6.23;;;1.60;;
20004;SDS011;69160;45.498;-73.582;2023-05-15T12:13:12;7.17;;;1.40;;
20004;SDS011;69160;45.498;-73.582;2023-05-15T12:15:40;8.80;;;1.50;;
20004;SDS011;69160;45.498;-73.582;2023-05-15T12:18:08;6.60;;;1.40;;
20004;SDS011;69160;45.498;-73.582;2023-05-15T12:20:36;15.00;;;2.90;;
20004;SDS011;69160;45.498;-73.582;2023-05-15T12:23:04;69.87;;;14.90;;
20004;SDS011;69160;45.498;-73.582;2023-05-15T12:25:35;90.33;;;21.30;;
20004;SDS011;69160;45.498;-73.582;2023-05-15T12:28:02;57.43;;;16.27;;
20004;SDS011;69160;45.498;-73.582;2023-05-15T12:30:30;59.50;;;11.97;;
20004;SDS011;69160;45.498;-73.582;2023-05-15T12:33:04;36.03;;;8.60;;
20004;SDS011;69160;45.498;-73.582;2023-05-15T12:35:32;28.33;;;6.93;;
20004;SDS011;69160;45.498;-73.582;2023-05-15T12:38:01;25.10;;;5.90;;
20004;SDS011;69160;45.498;-73.582;2023-05-15T12:40:28;21.57;;;4.87;;
20004;SDS011;69160;45.498;-73.582;2023-05-15T12:43:03;18.93;;;4.70;;
20004;SDS011;69160;45.498;-73.582;2023-05-15T12:45:33;13.87;;;4.30;;
20004;SDS011;69160;45.498;-73.582;2023-05-15T12:48:04;11.37;;;4.37;;
20004;SDS011;69160;45.498;-73.582;2023-05-15T12:50:32;17.03;;;4.07;;
20004;SDS011;69160;45.498;-73.582;2023-05-15T12:53:01;10.53;;;3.00;;
20004;SDS011;69160;45.498;-73.582;2023-05-15T12:55:29;13.53;;;3.17;;
20004;SDS011;69160;45.498;-73.582;2023-05-15T12:57:57;11.43;;;3.47;;
20004;SDS011;69160;45.498;-73.582;2023-05-15T13:00:27;18.57;;;3.30;;
20004;SDS011;69160;45.498;-73.582;2023-05-15T13:02:55;9.50;;;2.97;;
20004;SDS011;69160;45.498;-73.582;2023-05-15T13:05:22;13.13;;;2.83;;
20004;SDS011;69160;45.498;-73.582;2023-05-15T13:07:52;13.17;;;2.67;;
20004;SDS011;69160;45.498;-73.582;2023-05-15T13:10:22;7.10;;;2.33;;
20004;SDS011;69160;45.498;-73.582;2023-05-15T13:12:50;16.93;;;3.20;;
20004;SDS011;69160;45.498;-73.582;2023-05-15T13:17:59;11.60;;;2.70;;
20004;SDS011;69160;45.498;-73.582;2023-05-15T13:20:34;16.10;;;2.57;;
20004;SDS011;69160;45.498;-73.582;2023-05-15T13:23:00;24.27;;;3.70;;
20004;SDS011;69160;45.498;-73.582;2023-05-15T13:25:27;21.50;;;4.00;;
20004;SDS011;69160;45.498;-73.582;2023-05-15T13:27:55;13.70;;;3.30;;
20004;SDS011;69160;45.498;-73.582;2023-05-15T13:30:22;14.80;;;3.33;;
20004;SDS011;69160;45.498;-73.582;2023-05-15T13:32:49;13.03;;;2.50;;
20004;SDS011;69160;45.498;-73.582;2023-05-15T13:35:19;16.87;;;3.20;;
20004;SDS011;69160;45.498;-73.582;2023-05-15T13:37:45;11.00;;;2.57;;
20004;SDS011;69160;45.498;-73.582;2023-05-15T13:40:11;14.40;;;2.30;;
20004;SDS011;69160;45.498;-73.582;2023-05-15T13:42:38;9.53;;;2.40;;
20004;SDS011;69160;45.498;-73.582;2023-05-15T13:45:09;10.00;;;2.47;;
20004;SDS011;69160;45.498;-73.582;2023-05-15T13:47:37;9.70;;;2.27;;
20004;SDS011;69160;45.498;-73.582;2023-05-15T13:50:06;7.87;;;2.20;;
20004;SDS011;69160;45.498;-73.582;2023-05-15T13:52:34;9.60;;;2.30;;
20004;SDS011;69160;45.498;-73.582;2023-05-15T13:55:00;8.90;;;2.70;;
20004;SDS011;69160;45.498;-73.582;2023-05-15T13:57:27;4.10;;;1.87;;
20004;SDS011;69160;45.498;-73.582;2023-05-15T13:59:53;3.53;;;1.80;;
20004;SDS011;69160;45.498;-73.582;2023-05-15T14:02:20;5.47;;;2.30;;
20004;SDS011;69160;45.498;-73.582;2023-05-15T14:04:50;6.33;;;2.40;;
20004;SDS011;69160;45.498;-73.582;2023-05-15T14:07:17;4.27;;;1.83;;
20004;SDS011;69160;45.498;-73.582;2023-05-15T14:09:43;6.37;;;2.03;;
20004;SDS011;69160;45.498;-73.582;2023-05-15T14:12:10;9.57;;;2.30;;
20004;SDS011;69160;45.498;-73.582;2023-05-15T14:14:36;8.40;;;2.40;;
20004;SDS011;69160;45.498;-73.582;2023-05-15T14:17:02;10.60;;;2.00;;
20004;SDS011;69160;45.498;-73.582;2023-05-15T14:19:28;10.03;;;2.30;;
20004;SDS011;69160;45.498;-73.582;2023-05-15T14:21:54;5.00;;;2.33;;
20004;SDS011;69160;45.498;-73.582;2023-05-15T14:24:21;4.83;;;1.93;;
20004;SDS011;69160;45.498;-73.582;2023-05-15T14:26:47;6.23;;;2.07;;
20004;SDS011;69160;45.498;-73.582;2023-05-15T14:29:13;7.97;;;2.13;;
20004;SDS011;69160;45.498;-73.582;2023-05-15T14:31:40;12.50;;;2.80;;
20004;SDS011;69160;45.498;-73.582;2023-05-15T14:34:07;14.80;;;2.80;;
20004;SDS011;69160;45.498;-73.582;2023-05-15T14:36:33;7.30;;;2.40;;
20004;SDS011;69160;45.498;-73.582;2023-05-15T14:38:59;5.43;;;2.00;;
20004;SDS011;69160;45.498;-73.582;2023-05-15T14:41:26;7.57;;;2.13;;
20004;SDS011;69160;45.498;-73.582;2023-05-15T14:43:52;6.67;;;2.10;;
20004;SDS011;69160;45.498;-73.582;2023-05-15T14:46:18;8.33;;;2.47;;
20004;SDS011;69160;45.498;-73.582;2023-05-15T14:48:44;5.17;;;2.00;;
20004;SDS011;69160;45.498;-73.582;2023-05-15T14:51:11;9.70;;;2.30;;
20004;SDS011;69160;45.498;-73.582;2023-05-15T14:53:37;10.70;;;2.37;;